Time;durP1;ratioP1;P1;durP2;ratioP2;P2;SDS_P1;SDS_P2;PMS_P1;PMS_P2;Temp;Humidity;BMP_temperature;BMP_pressure;BME280_temperature;BME280_humidity;BME280_pressure;Samples;Min_cycle;Max_cycle;Signal;HPM_P1;HPM_P2
2023/05/16 00:01:25;;;;;;;20.00;3.97;;;7.50;74.80;;;;;;6277523;22;20045;-92
2023/05/16 00:03:59;;;;;;;25.33;4.23;;;7.50;74.90;;;;;;6241865;22;20054;-92
2023/05/16 00:06:25;;;;;;;21.27;3.57;;;7.40;74.90;;;;;;6248985;22;20011;-91
2023/05/16 00:08:58;;;;;;;25.50;4.23;;;7.40;74.90;;;;;;6262015;22;20023;-94
2023/05/16 00:11:24;;;;;;;20.47;3.83;;;7.40;75.00;;;;;;6278784;22;20061;-92
2023/05/16 00:14:01;;;;;;;19.00;3.70;;;7.40;75.00;;;;;;6275413;22;20531;-92
2023/05/16 00:16:28;;;;;;;21.63;3.87;;;7.40;75.00;;;;;;6251408;22;20054;-93
2023/05/16 00:18:56;;;;;;;18.67;3.50;;;7.30;75.00;;;;;;6247160;22;20110;-92
2023/05/16 00:21:32;;;;;;;19.73;3.80;;;7.30;75.00;;;;;;6277666;22;20011;-92
2023/05/16 00:24:02;;;;;;;15.50;3.43;;;7.20;75.00;;;;;;6237459;22;20034;-94
2023/05/16 00:26:31;;;;;;;17.73;3.37;;;7.20;74.90;;;;;;6274457;22;20018;-92
2023/05/16 00:28:59;;;;;;;16.53;3.40;;;7.20;74.80;;;;;;6261088;22;20023;-94
2023/05/16 00:31:25;;;;;;;21.40;3.17;;;7.20;74.80;;;;;;6252156;22;20019;-93
2023/05/16 00:33:51;;;;;;;16.57;3.83;;;7.20;74.80;;;;;;6274349;22;20015;-92
2023/05/16 00:36:26;;;;;;;18.40;3.33;;;7.10;74.70;;;;;;6250431;22;20024;-94
2023/05/16 00:38:51;;;;;;;18.47;3.33;;;7.10;74.70;;;;;;6274598;22;20015;-93
2023/05/16 00:41:38;;;;;;;19.33;3.40;;;7.10;74.70;;;;;;6252001;22;20453;-92
2023/05/16 00:44:04;;;;;;;16.30;3.57;;;7.10;74.70;;;;;;6301222;22;20476;-93
2023/05/16 00:46:50;;;;;;;23.60;3.90;;;7.10;74.70;;;;;;6249098;22;20023;-91
2023/05/16 00:49:22;;;;;;;20.53;3.90;;;7.10;74.70;;;;;;6274994;22;20019;-92
2023/05/16 00:51:51;;;;;;;19.70;3.07;;;7.10;74.80;;;;;;6278840;22;20016;-92
2023/05/16 00:54:28;;;;;;;15.77;3.30;;;7.10;74.80;;;;;;6239474;22;20102;-94
2023/05/16 00:57:17;;;;;;;17.50;3.57;;;7.00;74.80;;;;;;6273723;22;20019;-93
2023/05/16 00:59:49;;;;;;;18.27;3.97;;;7.00;74.80;;;;;;6255930;22;20039;-93
2023/05/16 01:02:43;;;;;;;20.87;3.20;;;7.00;74.80;;;;;;6305780;22;20038;-95
2023/05/16 01:05:11;;;;;;;18.23;3.23;;;7.00;74.80;;;;;;6280984;22;20019;-93
2023/05/16 01:07:40;;;;;;;16.43;3.13;;;7.00;74.80;;;;;;6233490;22;20031;-92
2023/05/16 01:10:10;;;;;;;15.98;3.03;;;7.00;74.80;;;;;;6280892;22;20015;-91
2023/05/16 01:12:37;;;;;;;19.80;3.37;;;7.00;74.80;;;;;;6276932;22;20073;-94
2023/05/16 01:15:30;;;;;;;19.00;3.53;;;7.00;74.90;;;;;;6278473;22;20015;-93
2023/05/16 01:18:05;;;;;;;18.00;3.47;;;7.00;74.90;;;;;;6274430;22;20018;-93
2023/05/16 01:21:07;;;;;;;23.60;3.87;;;7.00;74.90;;;;;;6279542;22;20022;-95
2023/05/16 01:24:04;;;;;;;20.30;3.60;;;7.00;74.90;;;;;;6279601;22;20015;-93
2023/05/16 01:26:34;;;;;;;23.23;3.90;;;7.00;74.90;;;;;;6277099;22;20011;-90
2023/05/16 01:29:20;;;;;;;21.93;3.50;;;7.00;74.90;;;;;;6236886;22;20023;-92
2023/05/16 01:31:54;;;;;;;24.37;3.67;;;7.00;74.90;;;;;;6306472;22;20026;-94
2023/05/16 01:34:35;;;;;;;19.47;3.10;;;7.00;74.90;;;;;;6277173;22;20034;-91
2023/05/16 01:37:14;;;;;;;21.55;3.63;;;7.00;74.80;;;;;;6273854;22;20062;-95
2023/05/16 01:40:20;;;;;;;17.87;3.63;;;7.00;74.80;;;;;;6305753;22;20015;-94
2023/05/16 01:42:51;;;;;;;14.27;3.00;;;7.00;74.70;;;;;;6249711;22;20154;-95
2023/05/16 01:45:37;;;;;;;16.13;3.57;;;6.90;74.70;;;;;;6265188;22;20016;-93
2023/05/16 01:49:01;;;;;;;22.42;3.42;;;6.90;74.80;;;;;;6262312;22;20504;-95
2023/05/16 01:51:36;;;;;;;14.48;2.45;;;6.90;74.80;;;;;;6281081;22;20019;-92
2023/05/16 01:54:35;;;;;;;23.53;3.50;;;6.90;74.80;;;;;;6242076;22;20055;-95
2023/05/16 01:57:07;;;;;;;18.73;3.40;;;6.90;74.80;;;;;;6274788;22;20115;-96
2023/05/16 01:59:59;;;;;;;25.67;4.00;;;6.90;74.90;;;;;;6193236;22;20019;-94
2023/05/16 02:02:31;;;;;;;15.87;3.80;;;6.80;75.00;;;;;;6261479;22;20020;-92
2023/05/16 02:05:51;;;;;;;;;;;;;;;;;;;;;
2023/05/16 02:11:45;;;;;;;15.50;3.97;;;6.80;75.10;;;;;;6306151;22;20019;-93
2023/05/16 02:14:47;;;;;;;17.80;3.30;;;6.80;75.20;;;;;;6193250;23;20107;-95
2023/05/16 02:17:15;;;;;;;28.40;4.63;;;6.90;75.30;;;;;;6178919;23;20439;-94
2023/05/16 02:19:41;;;;;;;19.27;4.07;;;6.90;75.30;;;;;;6214515;22;20072;-91
2023/05/16 02:22:10;;;;;;;19.13;4.00;;;7.00;75.30;;;;;;6211530;22;20023;-91
2023/05/16 02:24:41;;;;;;;23.23;4.90;;;7.00;75.30;;;;;;6252543;22;20142;-94
2023/05/16 02:27:10;;;;;;;17.55;3.95;;;7.00;75.20;;;;;;6246209;22;20018;-96
2023/05/16 02:29:36;;;;;;;20.77;4.40;;;7.10;75.10;;;;;;6252799;22;20022;-93
2023/05/16 02:32:02;;;;;;;18.90;4.47;;;7.10;75.10;;;;;;6253939;22;20011;-94
2023/05/16 02:34:30;;;;;;;20.40;4.40;;;7.20;75.00;;;;;;6226628;22;20090;-94
2023/05/16 02:36:56;;;;;;;14.67;3.77;;;7.10;75.00;;;;;;6247115;22;20011;-93
2023/05/16 02:39:45;;;;;;;22.73;3.50;;;7.10;75.00;;;;;;6252942;22;20030;-92
2023/05/16 02:42:14;;;;;;;21.03;4.27;;;7.20;75.00;;;;;;6251993;22;20015;-95
2023/05/16 02:44:40;;;;;;;18.60;3.77;;;7.10;74.90;;;;;;6203161;22;20073;-93
2023/05/16 02:47:06;;;;;;;18.03;4.20;;;7.10;74.90;;;;;;6231184;22;20164;-93
2023/05/16 02:49:31;;;;;;;15.93;3.33;;;7.20;74.80;;;;;;6246150;22;20027;-94
2023/05/16 02:51:57;;;;;;;17.63;3.30;;;7.20;74.80;;;;;;6256893;22;20019;-93
2023/05/16 02:54:23;;;;;;;20.70;3.97;;;7.20;74.80;;;;;;6252228;22;20023;-94
2023/05/16 02:56:49;;;;;;;22.70;3.87;;;7.20;74.70;;;;;;6216619;22;20098;-91
2023/05/16 02:59:18;;;;;;;17.00;3.60;;;7.20;74.70;;;;;;6218614;22;20031;-92
2023/05/16 03:01:44;;;;;;;22.47;3.53;;;7.20;74.70;;;;;;6253009;22;20023;-94
2023/05/16 03:04:09;;;;;;;21.50;3.13;;;7.20;74.70;;;;;;6224967;22;20025;-92
2023/05/16 03:06:40;;;;;;;15.33;3.33;;;7.20;74.60;;;;;;6248279;22;20047;-92
2023/05/16 03:09:06;;;;;;;15.97;2.97;;;7.10;74.50;;;;;;6248799;22;20750;-93
2023/05/16 03:11:46;;;;;;;18.37;3.10;;;7.10;74.50;;;;;;6223878;22;20019;-96
2023/05/16 03:14:15;;;;;;;16.57;3.13;;;7.10;74.30;;;;;;6249885;22;20034;-93
2023/05/16 03:16:42;;;;;;;17.90;3.27;;;7.10;74.30;;;;;;6217646;22;20007;-93
2023/05/16 03:19:09;;;;;;;18.67;3.67;;;7.00;74.30;;;;;;6228614;22;20086;-92
2023/05/16 03:21:38;;;;;;;23.40;3.43;;;7.00;74.30;;;;;;6304093;22;20094;-94
2023/05/16 03:24:09;;;;;;;22.10;3.90;;;7.00;74.30;;;;;;6275571;22;20559;-93
2023/05/16 03:26:45;;;;;;;14.83;3.07;;;7.00;74.30;;;;;;6248902;22;20517;-91
2023/05/16 03:29:13;;;;;;;17.67;3.70;;;7.00;74.30;;;;;;6239717;22;20473;-94
2023/05/16 03:31:54;;;;;;;24.97;3.60;;;7.00;74.40;;;;;;6256936;22;20043;-96
2023/05/16 03:34:25;;;;;;;13.07;2.70;;;7.00;74.40;;;;;;6280703;22;20096;-96
2023/05/16 03:37:02;;;;;;;22.80;3.08;;;7.00;74.40;;;;;;6282007;22;20006;-94
2023/05/16 03:39:30;;;;;;;21.27;3.83;;;7.00;74.60;;;;;;6284748;22;20019;-94
2023/05/16 03:49:01;;;;;;;18.43;3.23;;;6.90;74.90;;;;;;6155002;23;20025;-96
2023/05/16 03:51:36;;;;;;;22.70;3.40;;;6.90;74.70;;;;;;6192708;23;20031;-94
2023/05/16 03:54:10;;;;;;;17.95;3.22;;;6.90;74.70;;;;;;6168668;23;20032;-95
2023/05/16 03:56:39;;;;;;;20.07;3.47;;;6.90;74.70;;;;;;6158255;23;20075;-91
2023/05/16 03:59:10;;;;;;;12.70;3.10;;;6.90;74.80;;;;;;6180042;22;20035;-95
2023/05/16 04:01:36;;;;;;;14.07;3.55;;;6.90;74.80;;;;;;6279373;22;20449;-94
2023/05/16 04:04:02;;;;;;;15.87;3.00;;;6.90;74.70;;;;;;6279072;22;20050;-95
2023/05/16 04:06:28;;;;;;;15.50;2.80;;;6.90;74.60;;;;;;6278399;22;20067;-91
2023/05/16 04:09:22;;;;;;;14.80;3.27;;;7.00;74.60;;;;;;6301520;22;20392;-96
2023/05/16 04:23:50;;;;;;;16.83;3.00;;;7.00;74.40;;;;;;6330806;22;20094;-96
2023/05/16 04:30:33;;;;;;;16.57;3.07;;;7.00;74.40;;;;;;6095248;23;20062;-96
2023/05/16 04:51:31;;;;;;;14.37;2.67;;;7.40;74.60;;;;;;6306454;22;20023;-96
2023/05/16 04:54:00;;;;;;;14.63;2.40;;;7.50;74.60;;;;;;6242086;22;20441;-93
2023/05/16 04:56:45;;;;;;;12.97;2.60;;;7.50;74.70;;;;;;6269753;22;20793;-92
2023/05/16 04:59:48;;;;;;;17.03;2.73;;;7.60;74.70;;;;;;6268110;22;20033;-96
2023/05/16 05:02:44;;;;;;;10.70;2.60;;;7.60;74.60;;;;;;6264118;22;20065;-96
2023/05/16 05:05:19;;;;;;;15.00;2.60;;;7.80;74.60;;;;;;6270240;22;20341;-92
2023/05/16 05:07:45;;;;;;;15.90;2.47;;;7.80;74.80;;;;;;6273630;22;20014;-93
2023/05/16 05:10:11;;;;;;;16.70;2.40;;;8.00;74.90;;;;;;6285226;22;20022;-94
2023/05/16 05:13:20;;;;;;;13.43;2.70;;;8.20;75.00;;;;;;6282328;22;20064;-95
2023/05/16 05:15:52;;;;;;;11.43;2.50;;;8.50;74.90;;;;;;6264342;22;20103;-93
2023/05/16 05:18:23;;;;;;;14.03;2.60;;;8.80;74.80;;;;;;6267736;22;20396;-96
2023/05/16 05:20:56;;;;;;;11.80;2.00;;;9.00;74.50;;;;;;6258036;22;20019;-90
2023/05/16 05:23:37;;;;;;;14.77;2.13;;;9.40;74.10;;;;;;6280754;22;20127;-95
2023/05/16 05:26:17;;;;;;;;;;;9.60;73.90;;;;;;6284516;22;20022;-93
2023/05/16 05:29:05;;;;;;;10.63;2.60;;;9.80;71.00;;;;;;6240022;22;19914;-93
2023/05/16 05:31:34;;;;;;;15.57;2.50;;;10.20;71.70;;;;;;6264219;22;20054;-94
2023/05/16 05:34:24;;;;;;;12.60;2.17;;;10.40;72.40;;;;;;6237557;22;20106;-96
2023/05/16 05:36:50;;;;;;;12.57;2.33;;;10.80;71.80;;;;;;6246979;22;20015;-92
2023/05/16 05:39:19;;;;;;;15.03;2.80;;;11.10;71.80;;;;;;6257575;22;20085;-96
2023/05/16 05:41:45;;;;;;;16.33;2.60;;;11.50;71.20;;;;;;6285306;22;20075;-93
2023/05/16 05:44:43;;;;;;;13.50;2.53;;;11.70;70.90;;;;;;6241736;22;20086;-96
2023/05/16 05:47:15;;;;;;;11.90;2.50;;;11.60;68.70;;;;;;6258788;22;20512;-94
2023/05/16 05:49:50;;;;;;;9.23;1.90;;;11.30;69.30;;;;;;6248158;22;20026;-95
2023/05/16 05:52:16;;;;;;;10.07;2.10;;;10.90;69.30;;;;;;6262454;22;20160;-93
2023/05/16 05:54:58;;;;;;;9.20;2.00;;;10.60;69.70;;;;;;6236240;22;20029;-93
2023/05/16 05:57:24;;;;;;;7.70;2.33;;;10.40;69.90;;;;;;6246129;22;20126;-94
2023/05/16 06:00:13;;;;;;;10.93;1.93;;;10.40;70.40;;;;;;6264810;22;20103;-96
2023/05/16 06:03:02;;;;;;;13.90;2.20;;;10.50;70.30;;;;;;6260227;22;20074;-92
2023/05/16 06:05:45;;;;;;;10.17;2.03;;;10.70;69.10;;;;;;6270280;22;20014;-95
2023/05/16 06:08:20;;;;;;;8.63;1.80;;;10.70;69.30;;;;;;6251698;22;20054;-96
2023/05/16 06:11:15;;;;;;;4.57;0.90;;;10.70;68.80;;;;;;6283086;22;20027;-94
2023/05/16 06:14:37;;;;;;;4.63;0.80;;;10.60;68.30;;;;;;6277943;22;20610;-93
2023/05/16 06:17:05;;;;;;;5.77;1.00;;;10.50;67.20;;;;;;6279500;22;20015;-93
2023/05/16 06:19:30;;;;;;;6.67;1.23;;;10.50;68.00;;;;;;6283930;22;20467;-94
2023/05/16 06:21:56;;;;;;;5.70;1.47;;;10.60;67.90;;;;;;6258062;22;20019;-94
2023/05/16 06:24:40;;;;;;;11.13;1.73;;;10.60;67.90;;;;;;6280977;22;20026;-96
2023/05/16 06:27:33;;;;;;;10.43;1.87;;;10.70;67.90;;;;;;6259967;22;20492;-96
2023/05/16 06:30:29;;;;;;;11.40;2.10;;;10.70;67.00;;;;;;6233818;22;20110;-95
2023/05/16 06:33:39;;;;;;;10.80;1.77;;;10.70;67.50;;;;;;6255749;22;20081;-96
2023/05/16 06:36:15;;;;;;;7.87;1.60;;;10.70;67.90;;;;;;6256966;22;20169;-92
2023/05/16 06:38:48;;;;;;;8.60;1.40;;;10.50;67.60;;;;;;6281622;22;20019;-96
2023/05/16 06:41:14;;;;;;;8.70;2.00;;;10.40;67.30;;;;;;6284362;22;20019;-96
2023/05/16 06:43:48;;;;;;;11.60;2.03;;;10.30;67.90;;;;;;6282013;22;20051;-96
2023/05/16 06:46:17;;;;;;;8.23;1.80;;;10.30;67.90;;;;;;6255503;22;20053;-93
2023/05/16 06:48:45;;;;;;;13.70;2.07;;;10.20;68.20;;;;;;6260892;22;20031;-92
2023/05/16 06:51:20;;;;;;;11.93;2.00;;;10.20;68.30;;;;;;6255472;22;20464;-96
2023/05/16 06:53:59;;;;;;;9.33;1.73;;;10.30;68.70;;;;;;6188407;22;20028;-94
2023/05/16 06:56:25;;;;;;;13.53;2.13;;;10.40;69.00;;;;;;6280174;22;20084;-92
2023/05/16 07:02:34;;;;;;;10.60;2.13;;;10.70;69.00;;;;;;6179193;23;20020;-92
2023/05/16 07:05:19;;;;;;;14.80;2.90;;;10.70;69.60;;;;;;6167339;23;20028;-96
2023/05/16 07:08:12;;;;;;;12.87;2.43;;;10.80;69.80;;;;;;6186583;23;20016;-96
2023/05/16 07:10:45;;;;;;;11.73;2.30;;;10.90;69.70;;;;;;6191895;23;20020;-96
2023/05/16 07:13:26;;;;;;;11.00;2.40;;;10.90;69.40;;;;;;6166256;23;20027;-94
2023/05/16 07:15:52;;;;;;;11.30;2.37;;;10.80;68.20;;;;;;6166900;23;20062;-92
2023/05/16 07:18:27;;;;;;;14.10;2.63;;;10.70;68.70;;;;;;6183044;23;20020;-91
2023/05/16 07:20:56;;;;;;;13.53;2.53;;;10.70;68.80;;;;;;6191114;23;20052;-94
2023/05/16 07:23:25;;;;;;;11.40;2.50;;;10.70;68.50;;;;;;6175566;23;20093;-93
2023/05/16 07:25:52;;;;;;;12.13;2.63;;;10.50;68.40;;;;;;6190313;23;20016;-95
2023/05/16 07:28:32;;;;;;;12.67;2.50;;;10.40;68.50;;;;;;6145491;23;20335;-95
2023/05/16 07:31:22;;;;;;;9.80;2.40;;;10.40;68.20;;;;;;6192906;23;20398;-93
2023/05/16 07:34:06;;;;;;;13.47;2.47;;;10.40;67.40;;;;;;6173613;23;20462;-94
2023/05/16 07:37:11;;;;;;;;;;;;;;;;;;;;;
2023/05/16 07:39:46;;;;;;;14.73;2.33;;;10.50;67.60;;;;;;6308054;22;20646;-95
2023/05/16 07:42:12;;;;;;;16.47;2.90;;;10.60;67.00;;;;;;6265951;22;20073;-90
2023/05/16 07:44:38;;;;;;;12.33;2.77;;;10.60;67.20;;;;;;6219589;22;20023;-94
2023/05/16 07:47:17;;;;;;;11.57;2.30;;;10.70;67.20;;;;;;6265859;22;20014;-94
2023/05/16 07:49:58;;;;;;;11.37;2.60;;;10.80;66.50;;;;;;6205800;22;20026;-95
2023/05/16 07:52:36;;;;;;;8.30;2.30;;;10.90;66.60;;;;;;6270981;22;20094;-94
2023/05/16 07:55:05;;;;;;;16.43;2.37;;;10.90;66.50;;;;;;6272318;22;20623;-91
2023/05/16 07:57:31;;;;;;;8.50;1.63;;;10.90;66.10;;;;;;6262433;22;20739;-89
2023/05/16 08:00:00;;;;;;;10.60;2.53;;;10.90;65.90;;;;;;6277148;22;20094;-91
2023/05/16 08:02:29;;;;;;;9.23;2.13;;;10.90;66.10;;;;;;6283146;22;20201;-94
2023/05/16 08:04:58;;;;;;;11.80;2.53;;;10.90;66.30;;;;;;6237018;22;20018;-90
2023/05/16 08:07:26;;;;;;;12.70;2.60;;;10.90;66.70;;;;;;6275194;22;20696;-95
2023/05/16 08:09:52;;;;;;;11.60;2.27;;;10.70;67.60;;;;;;6281847;22;20167;-91
2023/05/16 08:13:16;;;;;;;;;;;;;;;;;;;;;
2023/05/16 08:15:55;;;;;;;;;;;;;;;;;;;;;
2023/05/16 08:18:49;;;;;;;10.48;2.10;;;10.20;69.20;;;;;;6291757;22;20086;-94
2023/05/16 08:21:21;;;;;;;11.33;2.07;;;10.30;69.20;;;;;;6280105;22;20015;-96
2023/05/16 08:24:05;;;;;;;;;;;;;;;;;;;;;
2023/05/16 08:26:39;;;;;;;12.57;2.73;;;10.50;68.80;;;;;;6279187;22;20022;-94
2023/05/16 08:29:10;;;;;;;18.37;2.20;;;10.70;69.00;;;;;;6277672;22;20467;-96
2023/05/16 08:31:42;;;;;;;9.93;2.37;;;10.80;67.90;;;;;;6255138;22;20019;-93
2023/05/16 08:34:13;;;;;;;17.20;2.80;;;10.80;67.90;;;;;;6278577;22;20029;-95
2023/05/16 08:36:45;;;;;;;13.73;2.67;;;10.90;67.70;;;;;;6274551;22;20242;-94
2023/05/16 08:39:19;;;;;;;14.20;2.50;;;11.00;67.80;;;;;;6279079;22;20025;-94
2023/05/16 08:42:04;;;;;;;14.20;2.50;;;11.10;67.90;;;;;;6255985;22;20026;-94
2023/05/16 08:44:51;;;;;;;12.05;2.60;;;11.20;67.70;;;;;;6238163;22;20023;-95
2023/05/16 08:47:23;;;;;;;13.47;2.53;;;11.40;65.70;;;;;;6274069;22;20072;-94
2023/05/16 08:49:51;;;;;;;10.27;2.33;;;11.40;66.80;;;;;;6282516;22;20026;-92
2023/05/16 08:52:52;;;;;;;;;;;;;;;;;;;;;
2023/05/16 08:55:23;;;;;;;15.60;2.30;;;11.50;66.20;;;;;;6261170;22;20104;-90
2023/05/16 08:57:53;;;;;;;12.37;2.37;;;11.50;66.20;;;;;;6270423;22;20019;-92
2023/05/16 09:00:21;;;;;;;12.73;2.38;;;11.50;66.20;;;;;;6282607;22;20019;-96
2023/05/16 09:02:53;;;;;;;10.75;2.38;;;11.50;66.00;;;;;;6243341;22;20027;-94
2023/05/16 09:05:30;;;;;;;13.95;2.47;;;11.60;65.70;;;;;;6236418;22;20064;-93
2023/05/16 09:08:01;;;;;;;15.90;2.90;;;11.70;65.90;;;;;;6219796;22;20019;-94
2023/05/16 09:10:36;;;;;;;;;;;11.70;66.00;;;;;;6242024;22;20437;-93
2023/05/16 09:13:07;;;;;;;17.85;2.58;;;11.70;64.60;;;;;;6277508;22;20430;-93
2023/05/16 09:16:14;;;;;;;7.63;2.20;;;11.70;65.60;;;;;;6297934;22;20024;-91
2023/05/16 09:18:41;;;;;;;;;;;11.50;65.20;;;;;;6262999;22;20027;-91
2023/05/16 09:21:10;;;;;;;9.52;2.17;;;11.50;64.00;;;;;;6285925;22;19922;-93
2023/05/16 09:23:54;;;;;;;15.23;2.45;;;11.70;65.50;;;;;;6254759;22;20026;-92
2023/05/16 09:26:23;;;;;;;13.55;2.17;;;11.80;65.00;;;;;;6256546;22;20037;-94
2023/05/16 09:28:56;;;;;;;10.35;2.00;;;11.80;65.20;;;;;;6276253;22;20101;-93
2023/05/16 09:31:25;;;;;;;12.57;2.33;;;11.70;65.20;;;;;;6281942;22;20018;-94
2023/05/16 09:34:10;;;;;;;9.20;1.90;;;11.70;65.50;;;;;;6265812;22;20018;-96
2023/05/16 09:36:39;;;;;;;9.18;2.20;;;11.70;65.30;;;;;;6303388;22;20236;-94
2023/05/16 09:39:27;;;;;;;14.40;2.15;;;11.90;65.50;;;;;;6255564;22;20259;-93
2023/05/16 09:42:02;;;;;;;16.63;2.55;;;11.90;65.10;;;;;;6273449;22;20015;-92
2023/05/16 09:44:50;;;;;;;10.80;2.35;;;11.70;64.90;;;;;;6280148;22;20052;-96
2023/05/16 09:47:20;;;;;;;11.35;2.33;;;11.60;64.90;;;;;;6240320;22;20766;-94
2023/05/16 09:52:44;;;;;;;9.95;2.13;;;11.70;64.80;;;;;;6259390;22;20019;-93
2023/05/16 09:55:33;;;;;;;9.88;1.98;;;11.80;65.10;;;;;;6286515;22;20029;-93
2023/05/16 09:58:13;;;;;;;9.02;2.50;;;11.90;64.30;;;;;;6273863;22;20105;-96
2023/05/16 10:00:53;;;;;;;14.73;2.20;;;12.00;64.70;;;;;;6283314;22;20022;-94
2023/05/16 10:03:22;;;;;;;9.45;2.53;;;12.00;64.90;;;;;;6243539;22;20069;-92
2023/05/16 10:06:05;;;;;;;9.68;2.08;;;12.00;64.80;;;;;;6256519;22;20111;-94
2023/05/16 10:08:35;;;;;;;11.93;2.20;;;11.90;64.80;;;;;;6274004;22;20231;-92
2023/05/16 10:11:06;;;;;;;10.13;1.73;;;12.00;65.20;;;;;;6282806;22;20019;-92
2023/05/16 10:13:39;;;;;;;8.93;1.90;;;12.00;65.10;;;;;;6279975;22;20139;-93
2023/05/16 10:16:33;;;;;;;10.15;2.17;;;12.10;63.50;;;;;;6256118;22;20098;-96
2023/05/16 10:19:02;;;;;;;10.52;2.15;;;12.00;63.40;;;;;;6251988;22;20027;-92
2023/05/16 10:21:31;;;;;;;7.00;1.50;;;12.00;63.90;;;;;;6255869;22;20019;-91
2023/05/16 10:24:16;;;;;;;8.20;1.80;;;12.00;63.40;;;;;;6234189;22;20105;-94
2023/05/16 10:26:46;;;;;;;11.18;2.13;;;12.10;62.70;;;;;;6330096;22;20025;-95
2023/05/16 10:29:12;;;;;;;8.35;1.85;;;12.20;63.60;;;;;;6279840;22;20018;-94
2023/05/16 10:31:41;;;;;;;12.43;2.30;;;12.20;63.80;;;;;;6255865;22;20090;-93
2023/05/16 10:34:22;;;;;;;10.82;1.92;;;12.30;64.00;;;;;;6242904;22;20416;-93
2023/05/16 10:37:06;;;;;;;8.77;1.83;;;12.40;63.20;;;;;;6277736;22;20125;-92
2023/05/16 10:39:36;;;;;;;8.05;1.77;;;12.30;62.60;;;;;;6281454;22;20019;-91
2023/05/16 10:42:13;;;;;;;10.50;1.80;;;12.20;63.40;;;;;;6282475;22;20019;-92
2023/05/16 10:44:55;;;;;;;9.77;1.80;;;12.30;63.20;;;;;;6245836;22;20038;-91
2023/05/16 10:47:25;;;;;;;11.40;2.00;;;12.40;63.30;;;;;;6249504;22;20018;-91
2023/05/16 10:49:53;;;;;;;10.00;2.35;;;12.30;63.00;;;;;;6234178;22;20022;-95
2023/05/16 10:52:19;;;;;;;10.48;2.22;;;12.20;63.00;;;;;;6277241;22;20044;-91
2023/05/16 10:55:11;;;;;;;9.65;1.42;;;12.10;62.90;;;;;;6280404;22;20468;-93
2023/05/16 10:57:37;;;;;;;9.95;2.22;;;12.10;62.80;;;;;;6231038;22;20191;-94
2023/05/16 11:00:21;;;;;;;9.05;2.15;;;12.10;63.40;;;;;;6281700;22;20025;-95
2023/05/16 11:02:47;;;;;;;12.07;2.45;;;12.10;62.80;;;;;;6278387;22;20075;-90
2023/05/16 11:05:20;;;;;;;11.70;2.08;;;12.10;63.30;;;;;;6255911;22;20088;-94
2023/05/16 11:08:10;;;;;;;10.23;1.55;;;12.10;63.10;;;;;;6272922;22;20029;-95
2023/05/16 11:10:44;;;;;;;10.07;1.65;;;12.10;62.90;;;;;;6281294;22;20647;-91
2023/05/16 11:13:19;;;;;;;10.10;1.73;;;12.10;63.20;;;;;;6277025;22;20072;-94
2023/05/16 11:15:48;;;;;;;8.82;2.10;;;12.20;62.80;;;;;;6279926;22;20102;-93
2023/05/16 11:18:18;;;;;;;8.60;2.33;;;12.30;63.00;;;;;;6273026;22;20046;-90
2023/05/16 11:20:44;;;;;;;15.30;2.70;;;12.40;62.90;;;;;;6256168;22;20027;-90
2023/05/16 11:23:16;;;;;;;10.15;2.38;;;12.30;63.20;;;;;;6238825;22;20027;-94
2023/05/16 11:25:50;;;;;;;13.68;2.75;;;12.30;63.50;;;;;;6282944;22;20015;-93
2023/05/16 11:28:18;;;;;;;16.92;2.20;;;12.20;63.90;;;;;;6268276;22;20081;-90
2023/05/16 11:30:50;;;;;;;8.80;2.20;;;12.20;64.10;;;;;;6281116;22;20019;-92
2023/05/16 11:33:19;;;;;;;8.73;2.03;;;12.30;63.70;;;;;;6248486;22;20645;-93
2023/05/16 11:36:10;;;;;;;10.63;2.03;;;12.40;63.70;;;;;;6245103;22;20578;-94
2023/05/16 11:38:46;;;;;;;;;;;;;;;;;;;;;
2023/05/16 11:41:37;;;;;;;8.20;2.00;;;12.50;63.70;;;;;;6312784;22;20058;-90
2023/05/16 11:44:06;;;;;;;14.18;2.75;;;12.50;63.00;;;;;;6241809;22;20026;-94
2023/05/16 11:46:33;;;;;;;14.55;3.00;;;12.40;63.40;;;;;;6252924;22;20015;-94
2023/05/16 11:49:03;;;;;;;14.13;3.08;;;12.40;63.60;;;;;;6234923;22;20078;-92
2023/05/16 11:51:33;;;;;;;10.82;2.78;;;12.50;63.80;;;;;;6281009;22;20175;-94
2023/05/16 11:54:15;;;;;;;14.88;2.58;;;12.50;63.70;;;;;;6278774;22;20023;-93
2023/05/16 11:56:52;;;;;;;15.75;3.10;;;12.70;63.20;;;;;;6272291;22;20048;-94
2023/05/16 11:59:21;;;;;;;9.23;2.40;;;12.70;63.20;;;;;;6278752;22;20034;-92
2023/05/16 12:01:50;;;;;;;9.65;2.60;;;12.70;63.60;;;;;;6281410;22;20019;-93
2023/05/16 12:04:19;;;;;;;9.88;2.75;;;12.50;63.90;;;;;;6251501;22;20011;-94
2023/05/16 12:07:01;;;;;;;11.65;2.67;;;12.50;64.00;;;;;;6227217;22;20652;-93
2023/05/16 12:09:33;;;;;;;8.93;2.60;;;12.50;63.70;;;;;;6239157;22;20054;-94
2023/05/16 12:11:59;;;;;;;13.93;2.92;;;12.50;63.90;;;;;;6280151;22;20019;-90
2023/05/16 12:14:28;;;;;;;14.32;2.78;;;12.60;64.10;;;;;;6261912;22;20052;-90
2023/05/16 12:16:54;;;;;;;10.60;2.50;;;12.80;63.60;;;;;;6274243;22;20011;-92
2023/05/16 12:19:20;;;;;;;12.68;2.80;;;12.90;63.50;;;;;;6252680;22;20053;-93
2023/05/16 12:21:49;;;;;;;13.52;3.30;;;12.90;63.60;;;;;;6254611;22;20019;-90
2023/05/16 12:24:16;;;;;;;11.75;3.00;;;13.00;63.60;;;;;;6251763;22;20019;-93
2023/05/16 12:26:45;;;;;;;16.50;3.50;;;13.10;63.50;;;;;;6246942;22;20022;-93
2023/05/16 12:29:11;;;;;;;14.60;3.13;;;13.10;63.50;;;;;;6261930;22;20020;-90
2023/05/16 12:31:40;;;;;;;12.48;3.25;;;13.00;63.60;;;;;;6280050;22;20184;-92
2023/05/16 12:34:22;;;;;;;15.75;3.20;;;12.90;63.20;;;;;;6278122;22;20015;-90
2023/05/16 12:37:00;;;;;;;13.57;3.22;;;12.80;63.30;;;;;;6275304;22;20011;-93
2023/05/16 12:39:29;;;;;;;8.73;2.78;;;12.50;64.80;;;;;;6283282;22;20122;-94
2023/05/16 12:42:05;;;;;;;13.38;3.30;;;12.20;65.80;;;;;;6257587;22;20079;-91
2023/05/16 12:44:40;;;;;;;8.13;3.35;;;12.00;67.10;;;;;;6278045;22;20042;-92
2023/05/16 12:47:13;;;;;;;8.98;3.40;;;11.80;67.00;;;;;;6272066;22;20472;-89
2023/05/16 12:49:53;;;;;;;12.10;3.30;;;11.70;67.10;;;;;;6278485;22;20011;-91
2023/05/16 12:52:28;;;;;;;10.95;3.58;;;11.50;67.20;;;;;;6279391;22;20022;-94
2023/05/16 12:55:08;;;;;;;14.40;3.83;;;11.40;67.60;;;;;;6282631;22;20102;-96
2023/05/16 12:57:56;;;;;;;12.95;3.70;;;11.40;67.90;;;;;;6234368;22;20029;-96
2023/05/16 13:00:48;;;;;;;10.15;3.38;;;11.50;66.90;;;;;;6256009;22;20045;-91
2023/05/16 13:03:29;;;;;;;8.98;3.22;;;11.60;66.80;;;;;;6252451;22;20034;-96
2023/05/16 13:05:58;;;;;;;9.23;2.38;;;11.70;66.20;;;;;;6257984;22;20015;-93
2023/05/16 13:08:43;;;;;;;6.07;2.33;;;11.80;66.00;;;;;;6276064;22;20033;-95
2023/05/16 13:11:18;;;;;;;8.93;2.30;;;11.90;65.30;;;;;;6257749;22;20019;-92
2023/05/16 13:14:10;;;;;;;7.65;2.85;;;11.90;65.10;;;;;;6241840;22;20019;-94
2023/05/16 13:17:02;;;;;;;10.38;2.50;;;11.80;65.10;;;;;;6277542;22;20282;-92
2023/05/16 13:19:45;;;;;;;14.07;3.28;;;11.70;65.40;;;;;;6178471;23;20027;-92
2023/05/16 13:22:41;;;;;;;9.50;2.90;;;11.70;66.30;;;;;;6261977;22;20109;-96
2023/05/16 13:25:25;;;;;;;8.32;2.92;;;11.50;67.70;;;;;;6255434;22;20019;-96
2023/05/16 13:28:26;;;;;;;10.18;3.25;;;11.50;67.80;;;;;;6272465;22;20445;-95
2023/05/16 13:30:52;;;;;;;8.00;3.30;;;11.40;68.40;;;;;;6158564;23;20067;-96
2023/05/16 13:33:26;;;;;;;11.73;2.90;;;11.40;67.80;;;;;;6183025;23;20423;-96
2023/05/16 13:36:03;;;;;;;9.13;3.53;;;11.40;67.10;;;;;;6181996;23;20901;-95
2023/05/16 13:38:58;;;;;;;8.75;3.58;;;11.30;66.50;;;;;;6189428;23;20194;-94
2023/05/16 13:41:47;;;;;;;14.68;3.80;;;11.30;67.00;;;;;;6182966;23;20030;-94
2023/05/16 13:44:13;;;;;;;8.95;3.45;;;11.30;66.90;;;;;;6238061;22;20030;-95
2023/05/16 13:46:57;;;;;;;;;;;;;;;;;;;;;
2023/05/16 13:49:38;;;;;;;7.15;2.80;;;11.40;67.00;;;;;;6282836;22;20021;-96
2023/05/16 13:52:14;;;;;;;9.82;3.03;;;11.50;67.10;;;;;;6277377;22;20019;-92
2023/05/16 13:54:43;;;;;;;8.98;2.78;;;11.60;67.20;;;;;;6305521;22;20052;-94
2023/05/16 13:57:15;;;;;;;10.43;3.15;;;11.60;67.10;;;;;;6225812;22;20019;-93
2023/05/16 14:00:27;;;;;;;7.55;2.78;;;11.70;66.90;;;;;;6198638;23;20048;-95
2023/05/16 14:03:19;;;;;;;11.35;3.05;;;11.70;67.00;;;;;;6257194;22;20636;-95
2023/05/16 14:06:00;;;;;;;9.68;2.65;;;11.70;67.10;;;;;;6284421;22;20022;-94
2023/05/16 14:08:40;;;;;;;12.63;3.10;;;11.50;67.70;;;;;;6234474;22;20015;-92
2023/05/16 14:11:24;;;;;;;;;;;;;;;;;;;;;
2023/05/16 14:16:51;;;;;;;14.05;3.53;;;11.30;69.80;;;;;;6293674;22;20021;-94
2023/05/16 14:19:20;;;;;;;7.20;2.85;;;11.30;69.70;;;;;;6282332;22;20027;-96
2023/05/16 14:22:45;;;;;;;12.40;2.90;;;11.20;69.70;;;;;;6283315;22;20029;-95
2023/05/16 14:25:13;;;;;;;11.98;3.10;;;11.30;71.50;;;;;;6121548;22;20049;-93
2023/05/16 14:27:49;;;;;;;6.57;2.47;;;11.30;70.20;;;;;;6262469;22;20026;-92
2023/05/16 14:30:25;;;;;;;;;;;11.50;69.80;;;;;;6261805;22;20125;-93
2023/05/16 14:35:53;;;;;;;8.75;2.13;;;11.70;68.70;;;;;;6233508;23;20060;-93
2023/05/16 14:39:07;;;;;;;8.63;2.27;;;11.90;67.70;;;;;;6300462;22;20023;-93